createdAt,value
2019-05-14T00:00:38.563Z,2.70
2019-05-14T00:03:10.948Z,2.70
2019-05-14T00:05:42.450Z,2.70
2019-05-14T00:08:12.901Z,2.70
2019-05-14T00:10:43.168Z,2.70
2019-05-14T00:13:13.480Z,2.80
2019-05-14T00:15:43.724Z,2.90
2019-05-14T00:18:13.997Z,2.90
2019-05-14T00:20:44.259Z,2.90
2019-05-14T00:23:14.493Z,3.00
2019-05-14T00:25:44.772Z,3.00
2019-05-14T00:28:16.841Z,3.00
2019-05-14T00:30:47.068Z,3.00
2019-05-14T00:33:17.451Z,3.10
2019-05-14T00:35:47.735Z,3.00
2019-05-14T00:38:18.025Z,3.00
2019-05-14T00:40:48.302Z,2.90
2019-05-14T00:43:18.555Z,2.90
2019-05-14T00:45:50.943Z,2.90
2019-05-14T00:48:22.175Z,2.80
2019-05-14T00:50:52.473Z,2.90
2019-05-14T00:53:23.886Z,2.90
2019-05-14T00:55:54.127Z,2.80
2019-05-14T00:58:24.409Z,2.70
2019-05-14T01:00:54.680Z,2.70
2019-05-14T01:03:27.159Z,2.70
2019-05-14T01:05:57.774Z,2.70
2019-05-14T01:08:28.045Z,2.70
2019-05-14T01:10:58.569Z,2.60
2019-05-14T01:13:31.080Z,2.60
2019-05-14T01:16:01.646Z,2.60
2019-05-14T01:18:32.389Z,2.50
2019-05-14T01:21:02.840Z,2.50
2019-05-14T01:23:33.113Z,2.40
2019-05-14T01:26:03.381Z,2.30
2019-05-14T01:28:33.650Z,2.30
2019-05-14T01:31:03.881Z,2.30
2019-05-14T01:33:34.156Z,2.20
2019-05-14T01:36:04.423Z,2.10
2019-05-14T01:38:34.662Z,2.10
2019-05-14T01:41:05.158Z,2.00
2019-05-14T01:43:35.443Z,1.90
2019-05-14T01:46:05.677Z,1.90
2019-05-14T01:48:35.957Z,1.90
2019-05-14T01:51:06.197Z,1.80
2019-05-14T01:53:36.444Z,1.80
2019-05-14T01:56:06.732Z,1.80
2019-05-14T01:58:37.005Z,1.80
2019-05-14T02:01:07.303Z,1.90
2019-05-14T02:03:37.782Z,1.80
2019-05-14T02:06:08.035Z,1.80
2019-05-14T02:08:38.352Z,1.70
2019-05-14T02:11:08.556Z,1.70
2019-05-14T02:13:41.257Z,1.60
2019-05-14T02:16:13.063Z,1.60
2019-05-14T02:18:42.834Z,1.60
2019-05-14T02:21:13.071Z,1.60
2019-05-14T02:23:43.387Z,1.50
2019-05-14T02:26:13.671Z,1.50
2019-05-14T02:28:43.911Z,1.40
2019-05-14T02:31:14.193Z,1.40
2019-05-14T02:33:44.434Z,1.30
2019-05-14T02:36:14.673Z,1.30
2019-05-14T02:38:44.959Z,1.20
2019-05-14T02:41:15.240Z,1.10
2019-05-14T02:43:45.748Z,1.10
2019-05-14T02:46:17.659Z,1.10
2019-05-14T02:48:49.156Z,1.10
2019-05-14T02:51:20.180Z,1.10
2019-05-14T02:53:50.632Z,1.10
2019-05-14T02:56:20.943Z,1.10
2019-05-14T02:58:51.254Z,1.20
2019-05-14T03:01:21.510Z,1.20
2019-05-14T03:03:51.862Z,1.20
2019-05-14T03:06:22.685Z,1.10
2019-05-14T03:08:52.932Z,1.20
2019-05-14T03:11:23.185Z,1.20
2019-05-14T03:13:53.434Z,1.20
2019-05-14T03:16:30.838Z,1.30
2019-05-14T03:18:59.205Z,1.30
2019-05-14T03:21:30.408Z,1.40
2019-05-14T03:24:00.960Z,1.60
2019-05-14T03:26:33.076Z,1.60
2019-05-14T03:29:03.790Z,1.60
2019-05-14T03:31:34.226Z,1.60
2019-05-14T03:34:04.492Z,1.60
2019-05-14T03:36:35.582Z,1.60
2019-05-14T03:39:10.581Z,1.70
2019-05-14T03:41:40.021Z,1.70
2019-05-14T03:44:10.468Z,1.90
2019-05-14T03:46:49.758Z,2.00
2019-05-14T03:49:13.172Z,2.00
2019-05-14T03:51:43.499Z,2.10
2019-05-14T03:54:13.828Z,2.20
2019-05-14T03:56:44.100Z,2.20
2019-05-14T03:59:14.899Z,2.50
2019-05-14T04:01:45.401Z,2.70
2019-05-14T04:04:19.180Z,2.60
2019-05-14T04:06:49.768Z,2.60
2019-05-14T04:09:20.392Z,2.60
2019-05-14T04:11:51.917Z,2.60
2019-05-14T04:14:22.273Z,2.70
2019-05-14T04:17:05.436Z,2.80
2019-05-14T04:19:25.106Z,2.90
2019-05-14T04:21:55.527Z,2.90
2019-05-14T04:24:25.802Z,3.00
2019-05-14T04:27:06.263Z,3.00
2019-05-14T04:29:30.702Z,3.10
2019-05-14T04:32:00.727Z,3.20
2019-05-14T04:34:31.075Z,3.30
2019-05-14T04:37:01.306Z,3.50
2019-05-14T04:39:31.629Z,3.70
2019-05-14T04:42:01.874Z,3.90
2019-05-14T04:44:32.117Z,4.00
2019-05-14T04:47:21.400Z,4.20
2019-05-14T04:49:34.437Z,4.30
2019-05-14T04:52:04.688Z,4.40
2019-05-14T04:54:34.992Z,4.50
2019-05-14T04:57:05.281Z,4.70
2019-05-14T04:59:35.546Z,4.80
2019-05-14T05:02:09.527Z,4.90
2019-05-14T05:04:41.167Z,5.00
2019-05-14T05:07:10.450Z,5.20
2019-05-14T05:09:40.704Z,5.40
2019-05-14T05:12:10.949Z,5.80
2019-05-14T05:14:41.185Z,5.90
2019-05-14T05:17:11.439Z,5.90
2019-05-14T05:19:45.400Z,5.90
2019-05-14T05:22:14.193Z,6.10
2019-05-14T05:24:44.469Z,6.30
2019-05-14T05:27:14.741Z,6.50
2019-05-14T05:29:45.006Z,6.60
2019-05-14T05:32:15.282Z,6.50
2019-05-14T05:34:48.119Z,6.50
2019-05-14T05:37:19.003Z,6.50
2019-05-14T05:39:49.458Z,6.50
2019-05-14T05:42:19.708Z,6.70
2019-05-14T05:44:49.971Z,7.00
2019-05-14T05:47:20.392Z,7.20
2019-05-14T05:49:51.006Z,7.30
2019-05-14T05:52:21.237Z,7.60
2019-05-14T05:54:51.753Z,7.90
2019-05-14T05:57:22.005Z,8.20
2019-05-14T05:59:52.281Z,8.30
2019-05-14T06:02:22.525Z,8.10
2019-05-14T06:04:53.147Z,7.90
2019-05-14T06:07:23.416Z,8.30
2019-05-14T06:09:53.706Z,8.60
2019-05-14T06:12:23.964Z,8.70
2019-05-14T06:14:54.203Z,8.50
2019-05-14T06:17:24.459Z,8.40
2019-05-14T06:19:54.702Z,8.70
2019-05-14T06:22:24.952Z,8.70
2019-05-14T06:24:55.228Z,8.70
2019-05-14T06:27:25.578Z,8.60
2019-05-14T06:29:58.137Z,8.60
2019-05-14T06:32:29.038Z,8.70
2019-05-14T06:34:59.592Z,8.70
2019-05-14T06:37:30.237Z,8.70
2019-05-14T06:40:00.615Z,8.90
2019-05-14T06:42:31.430Z,9.00
2019-05-14T06:45:01.673Z,9.30
2019-05-14T06:47:31.918Z,9.60
2019-05-14T06:50:02.260Z,9.90
2019-05-14T06:52:32.555Z,10.10
2019-05-14T06:55:02.802Z,10.30
2019-05-14T06:57:33.060Z,10.20
2019-05-14T07:00:04.758Z,10.30
2019-05-14T07:02:35.109Z,10.50
2019-05-14T07:05:09.714Z,10.60
2019-05-14T07:07:40.627Z,10.70
2019-05-14T07:10:11.260Z,10.80
2019-05-14T07:12:41.510Z,10.90
2019-05-14T07:15:11.760Z,11.20
2019-05-14T07:17:42.081Z,11.20
2019-05-14T07:20:12.632Z,11.60
2019-05-14T07:22:42.869Z,12.00
2019-05-14T07:25:14.786Z,11.80
2019-05-14T07:27:45.029Z,11.60
2019-05-14T07:30:15.280Z,12.00
2019-05-14T07:32:48.231Z,12.60
2019-05-14T07:35:18.441Z,12.70
2019-05-14T07:37:48.991Z,12.70
2019-05-14T07:40:19.353Z,12.90
2019-05-14T07:42:49.608Z,13.10
2019-05-14T07:45:19.903Z,13.10
2019-05-14T07:47:50.149Z,12.40
2019-05-14T07:50:20.404Z,12.50
2019-05-14T07:52:50.958Z,12.20
2019-05-14T07:55:21.234Z,12.10
2019-05-14T07:57:51.522Z,12.10
2019-05-14T08:00:21.781Z,12.60
2019-05-14T08:02:52.455Z,12.90
2019-05-14T08:05:22.964Z,12.80
2019-05-14T08:07:53.294Z,12.90
2019-05-14T08:10:24.751Z,13.20
2019-05-14T08:12:55.007Z,13.60
2019-05-14T08:15:25.288Z,13.60
2019-05-14T08:17:55.567Z,13.20
2019-05-14T08:20:25.816Z,12.70
2019-05-14T08:22:58.167Z,12.20
2019-05-14T08:25:28.366Z,12.40
2019-05-14T08:27:58.782Z,13.00
2019-05-14T08:30:29.009Z,13.50
2019-05-14T08:32:59.251Z,13.90
2019-05-14T08:35:34.117Z,13.40
2019-05-14T08:38:08.128Z,13.10
2019-05-14T08:40:33.465Z,13.20
2019-05-14T08:43:03.804Z,13.10
2019-05-14T08:45:34.107Z,13.40
2019-05-14T08:48:04.481Z,13.80
2019-05-14T08:50:34.761Z,13.90
2019-05-14T08:53:05.262Z,13.80
2019-05-14T08:55:38.142Z,13.20
2019-05-14T08:58:13.595Z,13.30
2019-05-14T09:00:40.597Z,13.40
2019-05-14T09:03:10.885Z,13.70
2019-05-14T09:05:41.161Z,13.90
2019-05-14T09:08:11.410Z,14.10
2019-05-14T09:10:41.666Z,14.40
2019-05-14T09:13:11.969Z,14.70
2019-05-14T09:15:42.245Z,14.50
2019-05-14T09:18:12.533Z,14.10
2019-05-14T09:20:42.777Z,13.90
2019-05-14T09:23:13.025Z,13.70
2019-05-14T09:25:47.453Z,13.90
2019-05-14T09:28:15.319Z,13.90
2019-05-14T09:30:45.611Z,13.70
2019-05-14T09:33:15.905Z,13.70
2019-05-14T09:35:49.075Z,13.80
2019-05-14T09:38:18.951Z,13.70
2019-05-14T09:40:49.339Z,13.60
2019-05-14T09:43:19.582Z,13.60
2019-05-14T09:45:50.737Z,13.20
2019-05-14T09:48:21.027Z,13.30
2019-05-14T09:50:51.278Z,13.90
2019-05-14T09:53:21.608Z,14.60
2019-05-14T09:55:51.913Z,14.80
2019-05-14T09:58:22.162Z,14.60
2019-05-14T10:00:52.466Z,13.70
2019-05-14T10:03:22.772Z,13.80
2019-05-14T10:05:53.005Z,13.70
2019-05-14T10:08:23.262Z,13.90
2019-05-14T10:10:53.629Z,14.20
2019-05-14T10:13:23.945Z,14.30
2019-05-14T10:15:54.491Z,14.30
2019-05-14T10:18:24.740Z,14.40
2019-05-14T10:20:55.063Z,14.10
2019-05-14T10:23:25.354Z,13.70
2019-05-14T10:25:57.556Z,13.60
2019-05-14T10:28:28.813Z,14.00
2019-05-14T10:31:00.596Z,14.50
2019-05-14T10:33:31.314Z,14.60
2019-05-14T10:36:01.577Z,14.50
2019-05-14T10:38:31.834Z,13.80
2019-05-14T10:41:02.114Z,13.70
2019-05-14T10:43:32.379Z,13.70
2019-05-14T10:46:02.903Z,14.00
2019-05-14T10:48:33.195Z,13.80
2019-05-14T10:51:03.828Z,13.50
2019-05-14T10:53:34.247Z,13.50
2019-05-14T10:56:04.508Z,13.50
2019-05-14T10:58:36.421Z,13.80
2019-05-14T11:01:11.356Z,14.40
2019-05-14T11:03:39.095Z,15.00
2019-05-14T11:06:11.752Z,15.10
2019-05-14T11:08:41.496Z,14.80
2019-05-14T11:11:11.777Z,14.40
2019-05-14T11:13:42.030Z,14.10
2019-05-14T11:16:12.311Z,13.90
2019-05-14T11:18:42.571Z,14.10
2019-05-14T11:21:24.026Z,14.10
2019-05-14T11:23:45.057Z,13.90
2019-05-14T11:26:18.233Z,13.80
2019-05-14T11:28:49.049Z,13.90
2019-05-14T11:31:19.689Z,13.80
2019-05-14T11:33:50.454Z,13.80
2019-05-14T11:36:20.736Z,14.20
2019-05-14T11:38:51.209Z,14.10
2019-05-14T11:41:21.714Z,14.00
2019-05-14T11:43:51.967Z,14.10
2019-05-14T11:46:33.786Z,13.70
2019-05-14T11:48:54.244Z,13.10
2019-05-14T11:51:56.117Z,12.70
2019-05-14T11:53:58.723Z,12.70
2019-05-14T11:56:30.293Z,12.50
2019-05-14T11:59:02.327Z,12.70
2019-05-14T12:01:32.542Z,13.00
2019-05-14T12:04:02.845Z,13.30
2019-05-14T12:06:33.094Z,13.80
2019-05-14T12:09:05.091Z,13.90
2019-05-14T12:11:35.440Z,14.00
2019-05-14T12:14:08.794Z,14.50
2019-05-14T12:16:40.155Z,14.80
2019-05-14T12:19:11.937Z,15.00
2019-05-14T12:21:57.373Z,15.50
2019-05-14T12:24:13.987Z,15.60
2019-05-14T12:26:44.469Z,15.70
2019-05-14T12:29:14.776Z,15.30
2019-05-14T12:31:45.073Z,15.20
2019-05-14T12:34:15.316Z,15.40
2019-05-14T12:36:45.645Z,15.40
2019-05-14T12:39:18.603Z,15.30
2019-05-14T12:41:49.016Z,15.30
2019-05-14T12:44:19.752Z,15.10
2019-05-14T12:46:50.364Z,15.10
2019-05-14T12:49:20.697Z,14.50
2019-05-14T12:51:50.963Z,14.40
2019-05-14T12:54:21.210Z,14.40
2019-05-14T12:56:51.547Z,14.50
2019-05-14T12:59:21.827Z,14.90
2019-05-14T13:01:52.141Z,15.40
2019-05-14T13:04:22.442Z,16.00
2019-05-14T13:06:52.782Z,16.50
2019-05-14T13:09:23.084Z,16.10
2019-05-14T13:11:53.368Z,15.60
2019-05-14T13:14:23.615Z,14.60
2019-05-14T13:16:54.671Z,14.60
2019-05-14T13:19:25.147Z,14.70
2019-05-14T13:22:12.103Z,15.20
2019-05-14T13:24:28.831Z,15.30
2019-05-14T13:26:59.134Z,14.90
2019-05-14T13:29:29.439Z,14.10
2019-05-14T13:31:59.922Z,14.30
2019-05-14T13:34:30.192Z,15.20
2019-05-14T13:37:00.647Z,16.10
2019-05-14T13:39:30.919Z,16.10
2019-05-14T13:42:01.171Z,15.30
2019-05-14T13:44:31.421Z,14.50
2019-05-14T13:47:01.986Z,14.40
2019-05-14T13:49:32.475Z,15.50
2019-05-14T13:52:02.736Z,16.80
2019-05-14T13:54:33.036Z,16.20
2019-05-14T13:57:04.064Z,15.10
2019-05-14T13:59:34.306Z,16.60
2019-05-14T14:02:04.596Z,16.40
2019-05-14T14:04:34.842Z,15.30
2019-05-14T14:07:08.817Z,14.70
2019-05-14T14:09:39.580Z,14.80
2019-05-14T14:12:10.048Z,16.30
2019-05-14T14:14:40.331Z,17.30
2019-05-14T14:17:10.574Z,16.50
2019-05-14T14:19:40.863Z,15.30
2019-05-14T14:22:11.128Z,14.70
2019-05-14T14:24:41.499Z,16.90
2019-05-14T14:27:11.743Z,19.00
2019-05-14T14:29:42.029Z,19.20
2019-05-14T14:32:12.306Z,16.80
2019-05-14T14:34:42.596Z,15.20
2019-05-14T14:37:12.878Z,14.20
2019-05-14T14:39:43.627Z,14.00
2019-05-14T14:42:14.526Z,14.10
2019-05-14T14:44:44.778Z,16.00
2019-05-14T14:47:15.065Z,18.50
2019-05-14T14:49:45.361Z,19.60
2019-05-14T14:52:15.645Z,18.40
2019-05-14T14:54:45.902Z,18.50
2019-05-14T14:57:19.557Z,17.70
2019-05-14T14:59:48.673Z,16.10
2019-05-14T15:02:19.848Z,15.60
2019-05-14T15:04:50.592Z,14.70
2019-05-14T15:07:20.855Z,14.60
2019-05-14T15:09:51.196Z,16.90
2019-05-14T15:12:21.478Z,19.20
2019-05-14T15:14:51.770Z,20.90
2019-05-14T15:17:22.020Z,22.60
2019-05-14T15:19:52.675Z,24.50
2019-05-14T15:22:23.042Z,24.30
2019-05-14T15:24:53.318Z,22.00
2019-05-14T15:27:23.564Z,18.70
2019-05-14T15:29:53.847Z,16.60
2019-05-14T15:32:24.107Z,15.40
2019-05-14T15:34:54.396Z,17.50
2019-05-14T15:37:24.635Z,19.30
2019-05-14T15:39:54.933Z,19.70
2019-05-14T15:42:25.212Z,21.60
2019-05-14T15:44:59.389Z,22.60
2019-05-14T15:47:29.719Z,23.80
2019-05-14T15:49:59.671Z,22.50
2019-05-14T15:52:30.134Z,18.80
2019-05-14T15:55:00.428Z,19.10
2019-05-14T15:57:30.721Z,20.40
2019-05-14T16:00:01.183Z,19.80
2019-05-14T16:02:31.440Z,17.60
2019-05-14T16:05:01.694Z,18.20
2019-05-14T16:07:32.020Z,18.80
2019-05-14T16:10:02.249Z,17.20
2019-05-14T16:12:32.606Z,15.20
2019-05-14T16:15:03.464Z,17.60
2019-05-14T16:17:33.746Z,18.90
2019-05-14T16:20:08.746Z,19.90
2019-05-14T16:22:39.713Z,20.00
2019-05-14T16:25:10.466Z,19.90
2019-05-14T16:27:40.842Z,18.60
2019-05-14T16:30:11.159Z,19.50
2019-05-14T16:32:41.441Z,17.80
2019-05-14T16:35:11.677Z,17.90
2019-05-14T16:37:41.965Z,17.30
2019-05-14T16:40:12.190Z,16.20
2019-05-14T16:42:42.493Z,14.60
2019-05-14T16:45:12.730Z,13.30
2019-05-14T16:47:43.012Z,12.50
2019-05-14T16:50:15.200Z,12.20
2019-05-14T16:52:45.944Z,12.90
2019-05-14T16:55:26.178Z,12.80
2019-05-14T16:57:49.420Z,12.20
2019-05-14T17:00:19.879Z,13.70
2019-05-14T17:02:50.115Z,16.60
2019-05-14T17:05:20.397Z,18.80
2019-05-14T17:07:50.685Z,20.20
2019-05-14T17:10:20.977Z,20.50
2019-05-14T17:12:56.880Z,20.90
2019-05-14T17:15:23.258Z,20.20
2019-05-14T17:17:53.593Z,19.30
2019-05-14T17:20:24.538Z,19.10
2019-05-14T17:22:55.610Z,20.20
2019-05-14T17:25:29.604Z,20.70
2019-05-14T17:27:59.327Z,21.10
2019-05-14T17:30:29.748Z,21.90
2019-05-14T17:33:00.032Z,22.30
2019-05-14T17:35:30.314Z,21.50
2019-05-14T17:38:00.748Z,19.30
2019-05-14T17:40:31.026Z,16.60
2019-05-14T17:43:01.311Z,15.60
2019-05-14T17:45:31.575Z,14.70
2019-05-14T17:48:01.850Z,13.70
2019-05-14T17:50:32.110Z,12.80
2019-05-14T17:53:02.355Z,12.00
2019-05-14T17:55:44.468Z,11.50
2019-05-14T17:58:04.641Z,11.40
2019-05-14T18:00:34.883Z,11.50
2019-05-14T18:03:05.176Z,11.50
2019-05-14T18:05:35.451Z,11.70
2019-05-14T18:08:09.178Z,11.30
2019-05-14T18:10:39.291Z,10.90
2019-05-14T18:13:09.664Z,10.60
2019-05-14T18:15:39.921Z,10.40
2019-05-14T18:18:10.242Z,10.50
2019-05-14T18:20:40.495Z,10.30
2019-05-14T18:23:11.766Z,10.00
2019-05-14T18:25:42.193Z,9.70
2019-05-14T18:28:12.462Z,9.50
2019-05-14T18:30:42.703Z,9.30
2019-05-14T18:33:12.945Z,9.10
2019-05-14T18:35:46.493Z,8.90
2019-05-14T18:38:16.050Z,8.80
2019-05-14T18:40:46.397Z,8.80
2019-05-14T18:43:18.725Z,8.80
2019-05-14T18:45:48.638Z,8.70
2019-05-14T18:48:19.496Z,8.50
2019-05-14T18:50:49.928Z,8.40
2019-05-14T18:53:20.186Z,8.20
2019-05-14T18:55:50.464Z,8.10
2019-05-14T18:58:20.708Z,8.00
2019-05-14T19:00:50.953Z,7.90
2019-05-14T19:03:21.209Z,7.90
2019-05-14T19:05:51.471Z,7.80
2019-05-14T19:08:21.754Z,7.70
2019-05-14T19:10:51.981Z,7.70
2019-05-14T19:13:22.287Z,7.60
2019-05-14T19:15:52.496Z,7.60
2019-05-14T19:18:22.770Z,7.60
2019-05-14T19:20:53.015Z,7.60
2019-05-14T19:23:23.287Z,7.50
2019-05-14T19:25:53.567Z,7.50
2019-05-14T19:28:23.873Z,7.40
2019-05-14T19:30:54.530Z,7.30
2019-05-14T19:33:24.780Z,7.10
2019-05-14T19:35:55.055Z,7.00
2019-05-14T19:38:25.342Z,6.90
2019-05-14T19:40:55.581Z,6.80
2019-05-14T19:43:25.859Z,6.60
2019-05-14T19:45:56.159Z,6.60
2019-05-14T19:48:29.570Z,6.50
2019-05-14T19:50:58.534Z,6.40
2019-05-14T19:53:28.799Z,6.20
2019-05-14T19:55:59.396Z,6.20
2019-05-14T19:58:29.776Z,6.10
2019-05-14T20:01:00.057Z,6.00
2019-05-14T20:03:30.358Z,5.90
2019-05-14T20:06:00.623Z,5.70
2019-05-14T20:08:30.857Z,5.70
2019-05-14T20:11:01.105Z,5.70
2019-05-14T20:13:31.399Z,5.60
2019-05-14T20:16:01.657Z,5.50
2019-05-14T20:18:31.915Z,5.40
2019-05-14T20:21:02.187Z,5.50
2019-05-14T20:23:32.597Z,5.50
2019-05-14T20:26:03.182Z,5.50
2019-05-14T20:28:33.414Z,5.30
2019-05-14T20:31:03.705Z,5.30
2019-05-14T20:33:34.013Z,5.10
2019-05-14T20:36:04.280Z,5.00
2019-05-14T20:38:34.530Z,4.90
2019-05-14T20:41:04.791Z,4.90
2019-05-14T20:43:35.103Z,4.70
2019-05-14T20:46:05.373Z,4.60
2019-05-14T20:48:35.644Z,4.60
2019-05-14T20:51:05.887Z,4.60
2019-05-14T20:53:36.127Z,4.60
2019-05-14T20:56:08.330Z,4.50
2019-05-14T20:58:38.975Z,4.40
2019-05-14T21:01:11.371Z,4.40
2019-05-14T21:03:43.923Z,4.30
2019-05-14T21:06:13.289Z,4.30
2019-05-14T21:08:43.818Z,4.20
2019-05-14T21:11:14.101Z,4.10
2019-05-14T21:13:44.341Z,4.10
2019-05-14T21:16:14.591Z,4.00
2019-05-14T21:18:44.838Z,4.00
2019-05-14T21:21:15.123Z,4.00
2019-05-14T21:23:45.366Z,4.00
2019-05-14T21:26:16.430Z,3.80
2019-05-14T21:28:48.831Z,3.70
2019-05-14T21:31:19.090Z,3.70
2019-05-14T21:33:49.372Z,3.70
2019-05-14T21:36:19.656Z,3.70
2019-05-14T21:38:49.903Z,3.60
2019-05-14T21:41:20.631Z,3.50
2019-05-14T21:43:50.991Z,3.40
2019-05-14T21:46:21.240Z,3.30
2019-05-14T21:48:51.537Z,3.30
2019-05-14T21:51:21.837Z,3.20
2019-05-14T21:53:52.117Z,3.00
2019-05-14T21:56:22.401Z,3.00
2019-05-14T21:58:52.660Z,3.00
2019-05-14T22:01:22.916Z,3.00
2019-05-14T22:03:53.324Z,2.90
2019-05-14T22:06:23.601Z,2.80
2019-05-14T22:08:53.876Z,2.70
2019-05-14T22:11:24.139Z,2.70
2019-05-14T22:13:54.399Z,2.60
2019-05-14T22:16:24.647Z,2.60
2019-05-14T22:18:54.883Z,2.50
2019-05-14T22:21:25.458Z,2.50
2019-05-14T22:23:55.706Z,2.50
2019-05-14T22:26:28.027Z,2.40
2019-05-14T22:28:58.694Z,2.50
2019-05-14T22:31:29.149Z,2.50
2019-05-14T22:33:59.452Z,2.50
2019-05-14T22:36:29.725Z,2.50
2019-05-14T22:38:59.960Z,2.60
2019-05-14T22:41:30.462Z,2.60
2019-05-14T22:44:00.881Z,2.60
2019-05-14T22:46:31.134Z,2.70
2019-05-14T22:49:01.410Z,2.70
2019-05-14T22:51:33.267Z,2.80
2019-05-14T22:54:03.698Z,2.80
2019-05-14T22:56:33.951Z,2.70
2019-05-14T22:59:04.190Z,2.80
2019-05-14T23:01:34.439Z,2.80
2019-05-14T23:04:04.725Z,2.90
2019-05-14T23:06:34.968Z,2.90
2019-05-14T23:09:08.826Z,2.80
2019-05-14T23:11:38.676Z,2.70
2019-05-14T23:14:09.109Z,2.70
2019-05-14T23:16:41.981Z,2.60
2019-05-14T23:19:11.372Z,2.60
2019-05-14T23:21:41.650Z,2.50
2019-05-14T23:24:13.584Z,2.40
2019-05-14T23:26:43.819Z,2.40
2019-05-14T23:29:14.061Z,2.30
2019-05-14T23:31:44.468Z,2.30
2019-05-14T23:34:14.717Z,2.30
2019-05-14T23:36:44.989Z,2.40
2019-05-14T23:39:15.488Z,2.50
2019-05-14T23:41:45.852Z,2.60
2019-05-14T23:44:16.355Z,2.60
2019-05-14T23:46:48.253Z,2.60
2019-05-14T23:49:18.582Z,2.50
2019-05-14T23:51:48.829Z,2.50
2019-05-14T23:54:19.076Z,2.30
2019-05-14T23:56:49.361Z,2.30
2019-05-14T23:59:20.955Z,2.10
